sensor_id;sensor_type;location;lat;lon;timestamp;pressure;altitude;pressure_sealevel;temperature;humidity
78603;BME280;68102;46.068;18.206;2023-04-06T00:00:02;100353.13;;;3.54;44.64
78603;BME280;68102;46.068;18.206;2023-04-06T00:00:32;100351.56;;;3.50;44.51
78603;BME280;68102;46.068;18.206;2023-04-06T00:01:03;100349.66;;;3.53;44.85
78603;BME280;68102;46.068;18.206;2023-04-06T00:01:34;100345.41;;;3.51;44.34
78603;BME280;68102;46.068;18.206;2023-04-06T00:02:04;100351.41;;;3.53;44.18
78603;BME280;68102;46.068;18.206;2023-04-06T00:02:36;100347.19;;;3.50;44.30
78603;BME280;68102;46.068;18.206;2023-04-06T00:03:06;100339.44;;;3.49;44.57
78603;BME280;68102;46.068;18.206;2023-04-06T00:03:37;100337.59;;;3.51;44.26
78603;BME280;68102;46.068;18.206;2023-04-06T00:04:07;100330.00;;;3.46;44.51
78603;BME280;68102;46.068;18.206;2023-04-06T00:04:38;100341.88;;;3.52;44.49
78603;BME280;68102;46.068;18.206;2023-04-06T00:05:08;100346.97;;;3.55;44.67
78603;BME280;68102;46.068;18.206;2023-04-06T00:05:39;100341.66;;;3.56;44.95
78603;BME280;68102;46.068;18.206;2023-04-06T00:06:10;100340.84;;;3.56;44.71
78603;BME280;68102;46.068;18.206;2023-04-06T00:06:41;100345.22;;;3.55;44.50
78603;BME280;68102;46.068;18.206;2023-04-06T00:07:11;100349.41;;;3.58;44.80
78603;BME280;68102;46.068;18.206;2023-04-06T00:07:42;100335.81;;;3.51;44.55
78603;BME280;68102;46.068;18.206;2023-04-06T00:08:12;100342.69;;;3.54;44.60
78603;BME280;68102;46.068;18.206;2023-04-06T00:08:43;100342.50;;;3.57;44.72
78603;BME280;68102;46.068;18.206;2023-04-06T00:09:14;100336.38;;;3.58;44.64
78603;BME280;68102;46.068;18.206;2023-04-06T00:09:45;100336.66;;;3.52;44.41
78603;BME280;68102;46.068;18.206;2023-04-06T00:10:16;100329.69;;;3.52;44.42
78603;BME280;68102;46.068;18.206;2023-04-06T00:10:47;100342.44;;;3.58;44.69
78603;BME280;68102;46.068;18.206;2023-04-06T00:11:17;100335.59;;;3.56;44.67
78603;BME280;68102;46.068;18.206;2023-04-06T00:11:48;100340.13;;;3.52;44.75
78603;BME280;68102;46.068;18.206;2023-04-06T00:12:19;100340.97;;;3.53;44.55
78603;BME280;68102;46.068;18.206;2023-04-06T00:12:50;100339.28;;;3.52;44.73
78603;BME280;68102;46.068;18.206;2023-04-06T00:13:21;100337.47;;;3.54;44.39
78603;BME280;68102;46.068;18.206;2023-04-06T00:13:51;100328.09;;;3.50;44.72
78603;BME280;68102;46.068;18.206;2023-04-06T00:14:23;100338.31;;;3.54;44.57
78603;BME280;68102;46.068;18.206;2023-04-06T00:14:53;100340.84;;;3.56;44.05
78603;BME280;68102;46.068;18.206;2023-04-06T00:15:24;100338.97;;;3.58;44.33
78603;BME280;68102;46.068;18.206;2023-04-06T00:15:55;100338.97;;;3.58;44.66
78603;BME280;68102;46.068;18.206;2023-04-06T00:16:25;100333.00;;;3.56;44.70
78603;BME280;68102;46.068;18.206;2023-04-06T00:16:56;100335.75;;;3.53;44.28
78603;BME280;68102;46.068;18.206;2023-04-06T00:17:27;100339.06;;;3.56;44.78
78603;BME280;68102;46.068;18.206;2023-04-06T00:17:58;100332.28;;;3.52;44.59
78603;BME280;68102;46.068;18.206;2023-04-06T00:18:28;100341.50;;;3.59;44.77
78603;BME280;68102;46.068;18.206;2023-04-06T00:18:59;100343.19;;;3.60;44.68
78603;BME280;68102;46.068;18.206;2023-04-06T00:19:30;100333.59;;;3.61;44.87
78603;BME280;68102;46.068;18.206;2023-04-06T00:20:00;100335.44;;;3.59;44.77
78603;BME280;68102;46.068;18.206;2023-04-06T00:20:31;100335.44;;;3.59;44.59
78603;BME280;68102;46.068;18.206;2023-04-06T00:21:02;100338.22;;;3.56;44.52
78603;BME280;68102;46.068;18.206;2023-04-06T00:21:32;100336.28;;;3.59;44.83
78603;BME280;68102;46.068;18.206;2023-04-06T00:22:03;100338.06;;;3.59;44.68
78603;BME280;68102;46.068;18.206;2023-04-06T00:22:34;100332.75;;;3.60;44.51
78603;BME280;68102;46.068;18.206;2023-04-06T00:23:04;100337.88;;;3.62;44.79
78603;BME280;68102;46.068;18.206;2023-04-06T00:23:35;100328.72;;;3.55;44.28
78603;BME280;68102;46.068;18.206;2023-04-06T00:24:06;100331.22;;;3.56;44.25
78603;BME280;68102;46.068;18.206;2023-04-06T00:24:36;100332.00;;;3.58;43.99
78603;BME280;68102;46.068;18.206;2023-04-06T00:25:08;100333.94;;;3.55;44.31
78603;BME280;68102;46.068;18.206;2023-04-06T00:25:40;100338.97;;;3.58;43.95
78603;BME280;68102;46.068;18.206;2023-04-06T00:26:11;100333.00;;;3.56;44.00
78603;BME280;68102;46.068;18.206;2023-04-06T00:26:41;100332.25;;;3.54;44.28
78603;BME280;68102;46.068;18.206;2023-04-06T00:27:12;100328.84;;;3.52;44.50
78603;BME280;68102;46.068;18.206;2023-04-06T00:27:43;100339.16;;;3.55;43.71
78603;BME280;68102;46.068;18.206;2023-04-06T00:28:13;100324.78;;;3.46;44.08
78603;BME280;68102;46.068;18.206;2023-04-06T00:28:44;100325.31;;;3.53;43.98
78603;BME280;68102;46.068;18.206;2023-04-06T00:29:15;100326.78;;;3.58;44.43
78603;BME280;68102;46.068;18.206;2023-04-06T00:29:46;100329.47;;;3.57;44.41
78603;BME280;68102;46.068;18.206;2023-04-06T00:30:16;100327.88;;;3.54;44.94
78603;BME280;68102;46.068;18.206;2023-04-06T00:30:47;100328.53;;;3.58;44.51
78603;BME280;68102;46.068;18.206;2023-04-06T00:31:17;100330.22;;;3.59;44.10
78603;BME280;68102;46.068;18.206;2023-04-06T00:31:48;100330.31;;;3.57;44.68
78603;BME280;68102;46.068;18.206;2023-04-06T00:32:18;100323.31;;;3.58;44.39
78603;BME280;68102;46.068;18.206;2023-04-06T00:32:49;100330.22;;;3.59;44.20
78603;BME280;68102;46.068;18.206;2023-04-06T00:33:20;100320.88;;;3.55;44.46
78603;BME280;68102;46.068;18.206;2023-04-06T00:33:50;100326.84;;;3.57;44.26
78603;BME280;68102;46.068;18.206;2023-04-06T00:34:21;100326.09;;;3.55;44.50
78603;BME280;68102;46.068;18.206;2023-04-06T00:34:52;100326.09;;;3.55;44.52
78603;BME280;68102;46.068;18.206;2023-04-06T00:35:22;100318.56;;;3.49;44.24
78603;BME280;68102;46.068;18.206;2023-04-06T00:35:53;100324.63;;;3.49;44.34
78603;BME280;68102;46.068;18.206;2023-04-06T00:36:23;100327.16;;;3.51;44.59
78603;BME280;68102;46.068;18.206;2023-04-06T00:36:54;100321.94;;;3.51;44.47
78603;BME280;68102;46.068;18.206;2023-04-06T00:37:25;100331.22;;;3.56;44.43
78603;BME280;68102;46.068;18.206;2023-04-06T00:37:55;100327.03;;;3.54;44.67
78603;BME280;68102;46.068;18.206;2023-04-06T00:38:26;100327.78;;;3.56;44.47
78603;BME280;68102;46.068;18.206;2023-04-06T00:38:56;100320.16;;;3.51;44.32
78603;BME280;68102;46.068;18.206;2023-04-06T00:39:27;100318.25;;;3.55;44.26
78603;BME280;68102;46.068;18.206;2023-04-06T00:39:58;100327.03;;;3.54;44.31
78603;BME280;68102;46.068;18.206;2023-04-06T00:40:28;100332.06;;;3.57;44.43
78603;BME280;68102;46.068;18.206;2023-04-06T00:40:59;100321.81;;;3.54;44.48
78603;BME280;68102;46.068;18.206;2023-04-06T00:41:30;100326.09;;;3.55;44.78
78603;BME280;68102;46.068;18.206;2023-04-06T00:42:09;100331.22;;;3.56;44.52
78603;BME280;68102;46.068;18.206;2023-04-06T00:42:41;100325.25;;;3.54;44.04
78603;BME280;68102;46.068;18.206;2023-04-06T00:43:12;100326.09;;;3.55;44.45
78603;BME280;68102;46.068;18.206;2023-04-06T00:43:43;100329.63;;;3.54;44.00
78603;BME280;68102;46.068;18.206;2023-04-06T00:44:13;100320.16;;;3.51;44.52
78603;BME280;68102;46.068;18.206;2023-04-06T00:44:44;100326.22;;;3.52;44.13
78603;BME280;68102;46.068;18.206;2023-04-06T00:45:15;100333.22;;;3.51;43.87
78603;BME280;68102;46.068;18.206;2023-04-06T00:45:46;100323.88;;;3.47;44.04
78603;BME280;68102;46.068;18.206;2023-04-06T00:46:17;100317.56;;;3.51;44.48
78603;BME280;68102;46.068;18.206;2023-04-06T00:46:47;100324.25;;;3.57;44.50
78603;BME280;68102;46.068;18.206;2023-04-06T00:47:18;100326.09;;;3.55;44.26
78603;BME280;68102;46.068;18.206;2023-04-06T00:47:49;100323.50;;;3.55;44.22
78603;BME280;68102;46.068;18.206;2023-04-06T00:48:19;100332.06;;;3.57;44.27
78603;BME280;68102;46.068;18.206;2023-04-06T00:48:50;100318.25;;;3.55;44.06
78603;BME280;68102;46.068;18.206;2023-04-06T00:49:21;100321.00;;;3.52;44.50
78603;BME280;68102;46.068;18.206;2023-04-06T00:49:52;100325.25;;;3.54;44.40
78603;BME280;68102;46.068;18.206;2023-04-06T00:50:23;100322.56;;;3.56;44.47
78603;BME280;68102;46.068;18.206;2023-04-06T00:50:54;100320.09;;;3.53;44.37
78603;BME280;68102;46.068;18.206;2023-04-06T00:51:24;100321.84;;;3.52;44.83
78603;BME280;68102;46.068;18.206;2023-04-06T00:51:55;100323.69;;;3.50;44.56
78603;BME280;68102;46.068;18.206;2023-04-06T00:52:26;100325.16;;;3.56;44.70
78603;BME280;68102;46.068;18.206;2023-04-06T00:52:56;100323.63;;;3.52;44.65
78603;BME280;68102;46.068;18.206;2023-04-06T00:53:27;100327.91;;;3.53;44.52
78603;BME280;68102;46.068;18.206;2023-04-06T00:53:58;100326.22;;;3.52;44.27
78603;BME280;68102;46.068;18.206;2023-04-06T00:54:29;100315.88;;;3.50;44.20
78603;BME280;68102;46.068;18.206;2023-04-06T00:55:01;100322.94;;;3.48;44.29
78603;BME280;68102;46.068;18.206;2023-04-06T00:55:32;100322.94;;;3.48;44.29
78603;BME280;68102;46.068;18.206;2023-04-06T00:56:03;100325.31;;;3.53;44.11
78603;BME280;68102;46.068;18.206;2023-04-06T00:56:34;100319.31;;;3.51;44.39
78603;BME280;68102;46.068;18.206;2023-04-06T00:57:05;100319.50;;;3.48;43.63
78603;BME280;68102;46.068;18.206;2023-04-06T00:57:36;100315.88;;;3.50;44.15
78603;BME280;68102;46.068;18.206;2023-04-06T00:58:07;100314.94;;;3.51;44.32
78603;BME280;68102;46.068;18.206;2023-04-06T00:58:37;100309.91;;;3.48;44.32
78603;BME280;68102;46.068;18.206;2023-04-06T00:59:09;100321.09;;;3.50;44.16
78603;BME280;68102;46.068;18.206;2023-04-06T00:59:40;100315.78;;;3.52;43.99
78603;BME280;68102;46.068;18.206;2023-04-06T01:00:11;100309.91;;;3.48;43.84
78603;BME280;68102;46.068;18.206;2023-04-06T01:00:42;100316.72;;;3.51;44.19
78603;BME280;68102;46.068;18.206;2023-04-06T01:01:13;100315.78;;;3.52;44.31
78603;BME280;68102;46.068;18.206;2023-04-06T01:01:44;100312.25;;;3.53;44.18
78603;BME280;68102;46.068;18.206;2023-04-06T01:02:14;100311.50;;;3.51;43.79
78603;BME280;68102;46.068;18.206;2023-04-06T01:02:45;100316.72;;;3.51;43.79
78603;BME280;68102;46.068;18.206;2023-04-06T01:03:16;100314.94;;;3.51;43.90
78603;BME280;68102;46.068;18.206;2023-04-06T01:03:48;100314.09;;;3.51;43.86
78603;BME280;68102;46.068;18.206;2023-04-06T01:04:20;100308.03;;;3.50;44.29
78603;BME280;68102;46.068;18.206;2023-04-06T01:04:53;100310.81;;;3.47;44.40
78603;BME280;68102;46.068;18.206;2023-04-06T01:05:24;100309.81;;;3.50;44.39
78603;BME280;68102;46.068;18.206;2023-04-06T01:05:55;100316.72;;;3.51;43.52
78603;BME280;68102;46.068;18.206;2023-04-06T01:06:28;100305.78;;;3.44;44.06
78603;BME280;68102;46.068;18.206;2023-04-06T01:06:59;100308.88;;;3.51;43.74
78603;BME280;68102;46.068;18.206;2023-04-06T01:07:30;100316.72;;;3.51;43.75
78603;BME280;68102;46.068;18.206;2023-04-06T01:08:00;100317.72;;;3.48;43.54
78603;BME280;68102;46.068;18.206;2023-04-06T01:08:31;100314.19;;;3.49;43.09
78603;BME280;68102;46.068;18.206;2023-04-06T01:09:02;100305.53;;;3.49;43.21
78603;BME280;68102;46.068;18.206;2023-04-06T01:09:32;100304.69;;;3.48;43.60
78603;BME280;68102;46.068;18.206;2023-04-06T01:10:03;100308.66;;;3.55;43.31
78603;BME280;68102;46.068;18.206;2023-04-06T01:10:34;100310.44;;;3.55;43.42
78603;BME280;68102;46.068;18.206;2023-04-06T01:11:05;100307.81;;;3.55;43.46
78603;BME280;68102;46.068;18.206;2023-04-06T01:11:36;100312.22;;;3.54;43.88
78603;BME280;68102;46.068;18.206;2023-04-06T01:12:06;100302.59;;;3.55;44.02
78603;BME280;68102;46.068;18.206;2023-04-06T01:12:37;100298.44;;;3.51;44.16
78603;BME280;68102;46.068;18.206;2023-04-06T01:13:09;100304.38;;;3.54;44.35
78603;BME280;68102;46.068;18.206;2023-04-06T01:13:39;100289.94;;;3.47;44.20
78603;BME280;68102;46.068;18.206;2023-04-06T01:14:10;100298.38;;;3.52;44.10
78603;BME280;68102;46.068;18.206;2023-04-06T01:14:41;100307.97;;;3.52;44.10
78603;BME280;68102;46.068;18.206;2023-04-06T01:15:12;100301.16;;;3.49;43.95
78603;BME280;68102;46.068;18.206;2023-04-06T01:15:43;100306.28;;;3.51;43.98
78603;BME280;68102;46.068;18.206;2023-04-06T01:16:14;100302.91;;;3.49;44.05
78603;BME280;68102;46.068;18.206;2023-04-06T01:16:45;100301.91;;;3.51;43.77
78603;BME280;68102;46.068;18.206;2023-04-06T01:17:15;100308.03;;;3.50;44.23
78603;BME280;68102;46.068;18.206;2023-04-06T01:17:46;100301.06;;;3.51;43.85
78603;BME280;68102;46.068;18.206;2023-04-06T01:18:16;100307.97;;;3.52;44.03
78603;BME280;68102;46.068;18.206;2023-04-06T01:18:47;100302.81;;;3.50;44.06
78603;BME280;68102;46.068;18.206;2023-04-06T01:19:17;100301.06;;;3.51;44.01
78603;BME280;68102;46.068;18.206;2023-04-06T01:19:48;100295.84;;;3.51;43.88
78603;BME280;68102;46.068;18.206;2023-04-06T01:20:20;100292.47;;;3.49;43.92
78603;BME280;68102;46.068;18.206;2023-04-06T01:20:50;100300.13;;;3.52;44.06
78603;BME280;68102;46.068;18.206;2023-04-06T01:21:21;100292.47;;;3.49;44.19
78603;BME280;68102;46.068;18.206;2023-04-06T01:21:52;100286.66;;;3.44;44.01
78603;BME280;68102;46.068;18.206;2023-04-06T01:22:24;100293.47;;;3.46;44.01
78603;BME280;68102;46.068;18.206;2023-04-06T01:22:55;100290.03;;;3.46;43.89
78603;BME280;68102;46.068;18.206;2023-04-06T01:23:25;100300.31;;;3.49;43.37
78603;BME280;68102;46.068;18.206;2023-04-06T01:23:56;100292.47;;;3.49;43.60
78603;BME280;68102;46.068;18.206;2023-04-06T01:24:26;100288.34;;;3.45;43.54
78603;BME280;68102;46.068;18.206;2023-04-06T01:24:57;100298.38;;;3.52;43.92
78603;BME280;68102;46.068;18.206;2023-04-06T01:25:28;100297.69;;;3.49;43.54
78603;BME280;68102;46.068;18.206;2023-04-06T01:25:58;100297.69;;;3.49;43.53
78603;BME280;68102;46.068;18.206;2023-04-06T01:26:29;100295.09;;;3.49;43.79
78603;BME280;68102;46.068;18.206;2023-04-06T01:26:59;100296.75;;;3.50;43.89
78603;BME280;68102;46.068;18.206;2023-04-06T01:27:31;100305.44;;;3.50;43.71
78603;BME280;68102;46.068;18.206;2023-04-06T01:28:02;100299.22;;;3.53;43.49
78603;BME280;68102;46.068;18.206;2023-04-06T01:28:32;100290.03;;;3.46;43.43
78603;BME280;68102;46.068;18.206;2023-04-06T01:29:03;100296.75;;;3.50;43.33
78603;BME280;68102;46.068;18.206;2023-04-06T01:29:33;100296.75;;;3.50;43.13
78603;BME280;68102;46.068;18.206;2023-04-06T01:30:05;100292.31;;;3.52;43.28
78603;BME280;68102;46.068;18.206;2023-04-06T01:30:36;100297.53;;;3.52;43.35
78603;BME280;68102;46.068;18.206;2023-04-06T01:31:08;100294.88;;;3.53;43.54
78603;BME280;68102;46.068;18.206;2023-04-06T01:31:39;100285.41;;;3.51;43.45
78603;BME280;68102;46.068;18.206;2023-04-06T01:32:10;100292.31;;;3.52;43.73
78603;BME280;68102;46.068;18.206;2023-04-06T01:32:40;100288.72;;;3.54;43.08
78603;BME280;68102;46.068;18.206;2023-04-06T01:33:11;100282.78;;;3.51;43.36
78603;BME280;68102;46.068;18.206;2023-04-06T01:33:42;100288.09;;;3.49;43.92
78603;BME280;68102;46.068;18.206;2023-04-06T01:34:12;100282.88;;;3.49;44.07
78603;BME280;68102;46.068;18.206;2023-04-06T01:34:43;100288.94;;;3.50;43.73
78603;BME280;68102;46.068;18.206;2023-04-06T01:35:14;100286.41;;;3.48;43.73
78603;BME280;68102;46.068;18.206;2023-04-06T01:35:44;100283.22;;;3.43;43.89
78603;BME280;68102;46.068;18.206;2023-04-06T01:36:16;100288.00;;;3.51;44.02
78603;BME280;68102;46.068;18.206;2023-04-06T01:36:46;100284.66;;;3.49;44.08
78603;BME280;68102;46.068;18.206;2023-04-06T01:37:17;100288.34;;;3.45;43.71
78603;BME280;68102;46.068;18.206;2023-04-06T01:37:47;100287.59;;;3.43;44.13
78603;BME280;68102;46.068;18.206;2023-04-06T01:38:18;100283.28;;;3.42;43.92
78603;BME280;68102;46.068;18.206;2023-04-06T01:38:49;100282.38;;;3.43;43.76
78603;BME280;68102;46.068;18.206;2023-04-06T01:39:20;100280.69;;;3.42;43.75
78603;BME280;68102;46.068;18.206;2023-04-06T01:39:51;100279.84;;;3.41;43.58
78603;BME280;68102;46.068;18.206;2023-04-06T01:40:21;100282.97;;;3.48;43.88
78603;BME280;68102;46.068;18.206;2023-04-06T01:40:53;100281.53;;;3.42;43.45
78603;BME280;68102;46.068;18.206;2023-04-06T01:41:24;100275.22;;;3.46;43.87
78603;BME280;68102;46.068;18.206;2023-04-06T01:41:54;100272.00;;;3.41;43.80
78603;BME280;68102;46.068;18.206;2023-04-06T01:42:25;100279.59;;;3.46;44.08
78603;BME280;68102;46.068;18.206;2023-04-06T01:42:56;100284.06;;;3.44;44.14
78603;BME280;68102;46.068;18.206;2023-04-06T01:43:27;100289.34;;;3.42;44.05
78603;BME280;68102;46.068;18.206;2023-04-06T01:43:58;100278.06;;;3.42;43.98
78603;BME280;68102;46.068;18.206;2023-04-06T01:44:28;100269.56;;;3.38;43.98
78603;BME280;68102;46.068;18.206;2023-04-06T01:45:00;100269.56;;;3.38;43.92
78603;BME280;68102;46.068;18.206;2023-04-06T01:45:31;100278.25;;;3.39;44.08
78603;BME280;68102;46.068;18.206;2023-04-06T01:46:01;100278.75;;;3.45;44.07
78603;BME280;68102;46.068;18.206;2023-04-06T01:46:32;100278.75;;;3.45;44.12
78603;BME280;68102;46.068;18.206;2023-04-06T01:47:03;100272.94;;;3.40;44.36
78603;BME280;68102;46.068;18.206;2023-04-06T01:47:33;100270.34;;;3.40;44.52
78603;BME280;68102;46.068;18.206;2023-04-06T01:48:04;100271.19;;;3.41;43.96
78603;BME280;68102;46.068;18.206;2023-04-06T01:48:35;100261.00;;;3.36;44.30
78603;BME280;68102;46.068;18.206;2023-04-06T01:49:06;100281.69;;;3.39;44.41
78603;BME280;68102;46.068;18.206;2023-04-06T01:49:37;100272.28;;;3.37;44.51
78603;BME280;68102;46.068;18.206;2023-04-06T01:50:08;100268.72;;;3.38;44.09
78603;BME280;68102;46.068;18.206;2023-04-06T01:50:38;100280.59;;;3.43;43.95
78603;BME280;68102;46.068;18.206;2023-04-06T01:51:09;100277.31;;;3.40;44.19
78603;BME280;68102;46.068;18.206;2023-04-06T01:51:39;100273.78;;;3.41;44.46
78603;BME280;68102;46.068;18.206;2023-04-06T01:52:10;100271.25;;;3.39;44.18
78603;BME280;68102;46.068;18.206;2023-04-06T01:52:41;100276.56;;;3.38;44.31
78603;BME280;68102;46.068;18.206;2023-04-06T01:53:11;100274.97;;;3.35;44.52
78603;BME280;68102;46.068;18.206;2023-04-06T01:53:42;100263.81;;;3.31;44.39
78603;BME280;68102;46.068;18.206;2023-04-06T01:54:13;100278.41;;;3.36;44.22
78603;BME280;68102;46.068;18.206;2023-04-06T01:54:43;100278.47;;;3.34;44.25
78603;BME280;68102;46.068;18.206;2023-04-06T01:55:14;100275.94;;;3.32;44.56
78603;BME280;68102;46.068;18.206;2023-04-06T01:55:45;100277.63;;;3.33;44.31
78603;BME280;68102;46.068;18.206;2023-04-06T01:56:16;100277.63;;;3.33;44.08
78603;BME280;68102;46.068;18.206;2023-04-06T01:56:47;100280.22;;;3.33;44.11
78603;BME280;68102;46.068;18.206;2023-04-06T01:57:17;100272.66;;;3.29;44.38
78603;BME280;68102;46.068;18.206;2023-04-06T01:57:48;100271.56;;;3.33;44.17
78603;BME280;68102;46.068;18.206;2023-04-06T01:58:18;100277.63;;;3.33;43.95
78603;BME280;68102;46.068;18.206;2023-04-06T01:58:49;100269.97;;;3.30;44.08
78603;BME280;68102;46.068;18.206;2023-04-06T01:59:19;100274.03;;;3.36;43.92
78603;BME280;68102;46.068;18.206;2023-04-06T01:59:50;100272.56;;;3.30;44.36
78603;BME280;68102;46.068;18.206;2023-04-06T02:00:21;100271.47;;;3.34;44.59
78603;BME280;68102;46.068;18.206;2023-04-06T02:00:52;100261.22;;;3.31;44.77
78603;BME280;68102;46.068;18.206;2023-04-06T02:01:23;100266.50;;;3.30;44.47
78603;BME280;68102;46.068;18.206;2023-04-06T02:01:54;100267.97;;;3.36;44.70
78603;BME280;68102;46.068;18.206;2023-04-06T02:02:25;100264.56;;;3.33;45.01
78603;BME280;68102;46.068;18.206;2023-04-06T02:02:55;100268.88;;;3.34;44.78
78603;BME280;68102;46.068;18.206;2023-04-06T02:03:26;100263.66;;;3.34;44.25
78603;BME280;68102;46.068;18.206;2023-04-06T02:03:56;100264.56;;;3.33;44.83
78603;BME280;68102;46.068;18.206;2023-04-06T02:04:27;100261.38;;;3.28;44.79
78603;BME280;68102;46.068;18.206;2023-04-06T02:04:57;100257.09;;;3.27;44.76
78603;BME280;68102;46.068;18.206;2023-04-06T02:05:30;100260.63;;;3.26;44.90
78603;BME280;68102;46.068;18.206;2023-04-06T02:06:01;100260.63;;;3.26;45.09
78603;BME280;68102;46.068;18.206;2023-04-06T02:06:32;100267.59;;;3.26;45.20
78603;BME280;68102;46.068;18.206;2023-04-06T02:07:03;100264.16;;;3.25;44.86
78603;BME280;68102;46.068;18.206;2023-04-06T02:07:34;100256.31;;;3.25;44.94
78603;BME280;68102;46.068;18.206;2023-04-06T02:08:04;100263.41;;;3.23;45.06
78603;BME280;68102;46.068;18.206;2023-04-06T02:08:35;100266.00;;;3.23;44.91
78603;BME280;68102;46.068;18.206;2023-04-06T02:09:06;100259.03;;;3.24;45.25
78603;BME280;68102;46.068;18.206;2023-04-06T02:09:36;100254.66;;;3.24;44.87
78603;BME280;68102;46.068;18.206;2023-04-06T02:10:12;100261.22;;;3.31;45.10
78603;BME280;68102;46.068;18.206;2023-04-06T02:10:43;100258.59;;;3.31;45.36
78603;BME280;68102;46.068;18.206;2023-04-06T02:11:14;100256.16;;;3.28;44.84
78603;BME280;68102;46.068;18.206;2023-04-06T02:11:44;100264.66;;;3.32;45.06
78603;BME280;68102;46.068;18.206;2023-04-06T02:12:15;100263.81;;;3.31;45.07
78603;BME280;68102;46.068;18.206;2023-04-06T02:12:46;100267.34;;;3.30;44.87
78603;BME280;68102;46.068;18.206;2023-04-06T02:13:16;100249.69;;;3.20;44.99
78603;BME280;68102;46.068;18.206;2023-04-06T02:13:47;100252.03;;;3.24;45.06
78603;BME280;68102;46.068;18.206;2023-04-06T02:14:17;100262.31;;;3.27;45.04
78603;BME280;68102;46.068;18.206;2023-04-06T02:14:48;100257.25;;;3.24;44.97
78603;BME280;68102;46.068;18.206;2023-04-06T02:15:18;100263.31;;;3.25;44.94
78603;BME280;68102;46.068;18.206;2023-04-06T02:15:49;100259.69;;;3.27;44.84
78603;BME280;68102;46.068;18.206;2023-04-06T02:16:20;100253.22;;;3.19;45.50
78603;BME280;68102;46.068;18.206;2023-04-06T02:16:50;100256.75;;;3.18;45.08
78603;BME280;68102;46.068;18.206;2023-04-06T02:17:21;100250.06;;;3.12;45.13
78603;BME280;68102;46.068;18.206;2023-04-06T02:17:52;100262.88;;;3.17;45.50
78603;BME280;68102;46.068;18.206;2023-04-06T02:18:23;100250.97;;;3.11;45.25
78603;BME280;68102;46.068;18.206;2023-04-06T02:18:53;100259.44;;;3.16;45.05
78603;BME280;68102;46.068;18.206;2023-04-06T02:19:24;100248.47;;;3.10;45.26
78603;BME280;68102;46.068;18.206;2023-04-06T02:19:54;100251.66;;;3.15;45.26
78603;BME280;68102;46.068;18.206;2023-04-06T02:20:25;100264.47;;;3.19;45.28
78603;BME280;68102;46.068;18.206;2023-04-06T02:20:55;100261.03;;;3.19;45.12
78603;BME280;68102;46.068;18.206;2023-04-06T02:21:26;100254.44;;;3.12;44.89
78603;BME280;68102;46.068;18.206;2023-04-06T02:21:57;100256.13;;;3.13;45.41
78603;BME280;68102;46.068;18.206;2023-04-06T02:22:27;100254.50;;;3.10;44.95
78603;BME280;68102;46.068;18.206;2023-04-06T02:22:59;100255.34;;;3.11;45.17
78603;BME280;68102;46.068;18.206;2023-04-06T02:23:30;100258.88;;;3.10;45.17
78603;BME280;68102;46.068;18.206;2023-04-06T02:24:01;100251.16;;;3.08;45.34
78603;BME280;68102;46.068;18.206;2023-04-06T02:24:31;100256.19;;;3.11;45.07
78603;BME280;68102;46.068;18.206;2023-04-06T02:25:02;100264.03;;;3.11;45.38
78603;BME280;68102;46.068;18.206;2023-04-06T02:25:33;100253.75;;;3.08;45.42
78603;BME280;68102;46.068;18.206;2023-04-06T02:26:03;100256.38;;;3.08;45.47
78603;BME280;68102;46.068;18.206;2023-04-06T02:26:34;100251.63;;;2.99;45.42
78603;BME280;68102;46.068;18.206;2023-04-06T02:27:05;100255.84;;;3.01;45.36
78603;BME280;68102;46.068;18.206;2023-04-06T02:27:36;100258.28;;;3.04;45.05
78603;BME280;68102;46.068;18.206;2023-04-06T02:28:07;100253.16;;;3.03;45.33
78603;BME280;68102;46.068;18.206;2023-04-06T02:28:37;100254.75;;;3.06;45.92
78603;BME280;68102;46.068;18.206;2023-04-06T02:29:08;100260.81;;;3.06;45.94
78603;BME280;68102;46.068;18.206;2023-04-06T02:29:38;100254.09;;;3.02;45.61
78603;BME280;68102;46.068;18.206;2023-04-06T02:30:10;100260.22;;;3.01;46.02
78603;BME280;68102;46.068;18.206;2023-04-06T02:30:40;100260.91;;;3.04;45.76
78603;BME280;68102;46.068;18.206;2023-04-06T02:31:11;100255.59;;;3.06;46.02
78603;BME280;68102;46.068;18.206;2023-04-06T02:31:42;100251.63;;;2.99;46.01
78603;BME280;68102;46.068;18.206;2023-04-06T02:32:12;100256.69;;;3.02;46.22
78603;BME280;68102;46.068;18.206;2023-04-06T02:32:43;100241.34;;;2.96;46.55
78603;BME280;68102;46.068;18.206;2023-04-06T02:33:13;100266.38;;;3.00;46.04
78603;BME280;68102;46.068;18.206;2023-04-06T02:33:44;100263.88;;;2.97;46.38
78603;BME280;68102;46.068;18.206;2023-04-06T02:34:15;100254.63;;;2.91;46.28
78603;BME280;68102;46.068;18.206;2023-04-06T02:34:47;100247.41;;;2.96;46.20
78603;BME280;68102;46.068;18.206;2023-04-06T02:35:18;100260.38;;;2.98;46.51
78603;BME280;68102;46.068;18.206;2023-04-06T02:35:48;100256.00;;;2.98;46.36
78603;BME280;68102;46.068;18.206;2023-04-06T02:36:19;100255.16;;;2.98;46.42
78603;BME280;68102;46.068;18.206;2023-04-06T02:36:50;100257.78;;;2.98;46.53
78603;BME280;68102;46.068;18.206;2023-04-06T02:37:20;100255.38;;;2.93;46.54
78603;BME280;68102;46.068;18.206;2023-04-06T02:37:52;100244.44;;;2.87;46.23
78603;BME280;68102;46.068;18.206;2023-04-06T02:38:22;100258.06;;;2.92;46.68
78603;BME280;68102;46.068;18.206;2023-04-06T02:38:53;100254.78;;;2.88;46.91
78603;BME280;68102;46.068;18.206;2023-04-06T02:39:23;100252.25;;;2.87;46.79
78603;BME280;68102;46.068;18.206;2023-04-06T02:39:54;100252.25;;;2.87;46.56
78603;BME280;68102;46.068;18.206;2023-04-06T02:40:25;100259.31;;;2.85;46.90
78603;BME280;68102;46.068;18.206;2023-04-06T02:40:56;100246.44;;;2.82;46.98